Time;durP1;ratioP1;P1;durP2;ratioP2;P2;SDS_P1;SDS_P2;PMS_P1;PMS_P2;Temp;Humidity;BMP_temperature;BMP_pressure;BME280_temperature;BME280_humidity;BME280_pressure;Samples;Min_cycle;Max_cycle;Signal;HPM_P1;HPM_P2
2022/07/28 00:01:41;;;;;;;7.33;6.72;;;;;;;18.89;84.48;100642.67;1746289;81;21144;-91
2022/07/28 00:04:07;;;;;;;7.78;6.97;;;;;;;18.88;84.54;100648.48;1746306;81;21004;-90
2022/07/28 00:06:35;;;;;;;7.30;6.60;;;;;;;18.88;84.63;100643.67;1745753;82;20924;-92
2022/07/28 00:09:03;;;;;;;10.05;7.22;;;;;;;18.88;84.68;100648.98;1745668;81;21003;-91
2022/07/28 00:11:30;;;;;;;8.25;7.58;;;;;;;18.86;84.53;100647.80;1745857;81;20928;-89
2022/07/28 00:13:58;;;;;;;7.87;7.17;;;;;;;18.87;84.64;100648.62;1745868;81;21157;-90
2022/07/28 00:16:25;;;;;;;9.53;8.43;;;;;;;18.86;84.71;100646.47;1745634;82;20944;-90
2022/07/28 00:18:51;;;;;;;9.00;8.05;;;;;;;18.85;84.74;100647.43;1745671;82;20937;-90
2022/07/28 00:21:18;;;;;;;9.60;7.65;;;;;;;18.85;84.69;100652.75;1746017;82;20976;-91
2022/07/28 00:23:44;;;;;;;8.23;7.25;;;;;;;18.84;84.56;100649.75;1748188;78;20941;-90
2022/07/28 00:26:11;;;;;;;8.60;7.80;;;;;;;18.82;84.32;100655.70;1748076;81;21139;-90
2022/07/28 00:28:38;;;;;;;9.55;7.15;;;;;;;18.81;84.30;100655.38;1747682;78;20932;-88
2022/07/28 00:31:06;;;;;;;8.58;6.58;;;;;;;18.79;84.29;100658.66;1748315;78;20885;-88
2022/07/28 00:33:33;;;;;;;7.90;7.05;;;;;;;18.77;84.39;100651.29;1747379;78;21303;-89
2022/07/28 00:35:59;;;;;;;7.30;6.55;;;;;;;18.75;84.53;100659.40;1735415;82;20900;-90
2022/07/28 00:38:26;;;;;;;11.15;7.83;;;;;;;18.73;84.86;100658.70;1745660;81;21218;-90
2022/07/28 00:41:11;;;;;;;10.45;7.92;;;;;;;18.72;85.05;100653.05;1745731;81;20937;-92
2022/07/28 00:43:42;;;;;;;11.35;8.53;;;;;;;18.71;85.30;100647.88;1745600;81;20999;-90
2022/07/28 00:46:09;;;;;;;10.80;7.75;;;;;;;18.68;85.37;100646.35;1743896;81;20952;-91
2022/07/28 00:48:42;;;;;;;8.53;6.75;;;;;;;18.66;85.48;100644.33;1745641;81;20866;-90
2022/07/28 00:51:09;;;;;;;9.70;7.40;;;;;;;18.66;85.55;100638.19;1745358;81;21421;-90
2022/07/28 00:53:37;;;;;;;9.30;7.30;;;;;;;18.64;85.67;100641.80;1745967;80;20916;-91
2022/07/28 00:56:05;;;;;;;8.95;7.67;;;;;;;18.63;85.65;100646.78;1759060;81;20877;-90
2022/07/28 00:58:31;;;;;;;10.75;7.80;;;;;;;18.61;85.49;100648.74;1758762;81;21378;-91
2022/07/28 01:00:58;;;;;;;8.23;7.37;;;;;;;18.58;85.61;100647.69;1759455;81;21019;-90
2022/07/28 01:03:24;;;;;;;9.00;8.18;;;;;;;18.55;85.64;100647.16;1760266;81;21251;-91
2022/07/28 01:06:11;;;;;;;9.73;7.97;;;;;;;18.51;85.73;100654.55;1760549;80;20928;-87
2022/07/28 01:09:37;;;;;;;8.55;7.67;;;;;;;18.50;85.86;100652.89;1760854;81;21034;-86
2022/07/28 01:12:36;;;;;;;8.60;7.35;;;;;;;18.49;85.88;100655.19;1759093;78;20932;-90
2022/07/28 01:15:20;;;;;;;9.90;8.05;;;;;;;18.46;86.15;100652.00;1723962;81;20916;-90
2022/07/28 01:17:50;;;;;;;;;;;;;;;18.45;86.40;100655.12;1762203;81;21315;-90
2022/07/28 01:20:46;;;;;;;10.00;7.78;;;;;;;18.45;86.66;100645.83;1761085;78;20065;-89
2022/07/28 01:23:52;;;;;;;8.70;7.92;;;;;;;18.46;86.70;100650.67;1761386;81;20948;-89
2022/07/28 01:26:54;;;;;;;13.13;8.60;;;;;;;18.45;86.67;100653.79;1759626;81;20947;-89
2022/07/28 01:30:07;;;;;;;14.55;8.60;;;;;;;18.47;86.72;100656.31;1759422;81;20960;-89
2022/07/28 01:32:41;;;;;;;8.63;7.78;;;;;;;18.45;86.75;100653.79;1738465;81;21172;-90
2022/07/28 01:35:25;;;;;;;9.00;8.10;;;;;;;18.42;86.55;100652.27;1758827;81;21436;-90
2022/07/28 01:37:54;;;;;;;8.53;7.73;;;;;;;18.41;86.54;100657.23;1758935;81;20955;-90
2022/07/28 01:40:25;;;;;;;9.23;8.28;;;;;;;18.41;86.51;100656.41;1758827;81;20956;-91
2022/07/28 01:42:55;;;;;;;10.35;8.00;;;;;;;18.38;86.32;100661.48;1758962;81;21362;-91
2022/07/28 01:45:22;;;;;;;10.35;7.40;;;;;;;18.36;86.21;100655.51;1758851;81;21139;-91
2022/07/28 01:47:52;;;;;;;8.33;7.47;;;;;;;18.34;86.10;100653.95;1717632;80;20928;-88
2022/07/28 01:50:20;;;;;;;9.40;8.45;;;;;;;18.31;85.91;100655.56;1758790;81;20940;-89
2022/07/28 01:52:46;;;;;;;9.90;7.83;;;;;;;18.26;85.91;100656.00;1758925;80;20893;-90
2022/07/28 01:55:13;;;;;;;8.98;7.85;;;;;;;18.22;86.19;100661.23;1758698;80;20849;-89
2022/07/28 01:57:40;;;;;;;15.88;7.25;;;;;;;18.18;86.43;100659.34;1758607;81;21233;-88
2022/07/28 02:00:12;;;;;;;10.30;7.58;;;;;;;18.17;86.56;100657.67;1758694;80;20936;-89
2022/07/28 02:02:41;;;;;;;8.68;7.45;;;;;;;18.15;86.67;100655.65;1758711;81;20928;-89
2022/07/28 02:05:11;;;;;;;8.45;7.55;;;;;;;18.14;86.97;100663.73;1758772;81;20995;-91
2022/07/28 02:07:38;;;;;;;9.48;8.20;;;;;;;18.10;87.25;100662.38;1758908;80;21009;-90
2022/07/28 02:10:06;;;;;;;12.75;8.58;;;;;;;18.10;87.48;100666.35;1758860;81;21123;-89
2022/07/28 02:12:34;;;;;;;10.25;8.80;;;;;;;18.09;87.72;100672.62;1758715;81;20881;-92
2022/07/28 02:15:01;;;;;;;13.70;8.80;;;;;;;18.09;87.89;100678.76;1758740;81;20940;-89
2022/07/28 02:17:30;;;;;;;11.12;7.87;;;;;;;18.09;87.80;100678.76;1758716;81;21394;-90
2022/07/28 02:19:58;;;;;;;10.78;8.70;;;;;;;18.07;87.76;100688.67;1741746;81;20897;-90
2022/07/28 02:22:26;;;;;;;9.20;8.25;;;;;;;18.06;87.75;100680.87;1758955;81;21346;-89
2022/07/28 02:24:54;;;;;;;10.85;8.73;;;;;;;18.07;87.80;100683.86;1758745;81;20924;-88
2022/07/28 02:27:37;;;;;;;9.20;8.35;;;;;;;18.06;87.85;100690.16;1758915;81;20979;-87
2022/07/28 02:30:21;;;;;;;8.90;8.10;;;;;;;18.07;87.97;100693.15;1711147;83;20863;-89
2022/07/28 02:33:01;;;;;;;8.13;7.33;;;;;;;18.05;87.87;100689.80;1711111;82;21515;-89
2022/07/28 02:35:47;;;;;;;9.10;8.13;;;;;;;18.02;87.80;100693.08;1710868;83;21163;-89
2022/07/28 02:38:27;;;;;;;13.98;8.20;;;;;;;18.02;87.89;100701.53;1710966;83;20863;-89
2022/07/28 02:40:56;;;;;;;12.82;8.45;;;;;;;18.00;87.98;100691.54;1711131;83;20942;-91
2022/07/28 02:43:27;;;;;;;10.05;7.97;;;;;;;18.01;88.06;100691.91;1708834;82;20895;-89
2022/07/28 02:45:57;;;;;;;9.33;8.38;;;;;;;18.01;88.31;100691.41;1710853;83;20879;-91
2022/07/28 02:48:27;;;;;;;8.38;7.67;;;;;;;18.04;88.29;100694.77;1671549;84;21247;-89
2022/07/28 02:50:54;;;;;;;8.43;7.58;;;;;;;18.04;88.18;100696.92;1711603;83;20942;-89
2022/07/28 02:53:23;;;;;;;10.40;8.00;;;;;;;18.07;88.30;100703.77;1711164;84;20946;-90
2022/07/28 02:55:49;;;;;;;8.85;7.95;;;;;;;18.09;88.52;100699.16;1690360;83;21004;-91
2022/07/28 02:58:22;;;;;;;10.10;7.70;;;;;;;18.11;88.56;100696.72;1681659;84;20999;-85
2022/07/28 03:00:51;;;;;;;9.40;8.35;;;;;;;18.14;88.52;100695.59;1682435;84;21181;-86
2022/07/28 03:03:18;;;;;;;11.03;7.80;;;;;;;18.14;88.44;100699.11;1682632;84;21516;-85
2022/07/28 03:05:45;;;;;;;9.40;7.92;;;;;;;18.15;88.48;100696.79;1682634;84;20884;-86
2022/07/28 03:08:12;;;;;;;12.13;7.95;;;;;;;18.17;88.61;100702.80;1720339;82;20931;-85
2022/07/28 03:10:40;;;;;;;10.38;7.12;;;;;;;18.20;88.81;100697.20;1721643;82;20974;-86
2022/07/28 03:13:07;;;;;;;8.28;7.37;;;;;;;18.25;88.84;100698.60;1721801;82;21230;-85
2022/07/28 03:15:36;;;;;;;9.40;8.40;;;;;;;18.28;88.86;100695.19;1721656;83;20880;-86
2022/07/28 03:18:04;;;;;;;8.80;7.97;;;;;;;18.33;88.69;100701.41;1722158;82;21334;-85
2022/07/28 03:20:32;;;;;;;10.72;8.10;;;;;;;18.35;88.24;100709.58;1723068;83;21005;-85
2022/07/28 03:22:59;;;;;;;10.55;9.20;;;;;;;18.37;87.96;100707.63;1723015;82;20943;-85
2022/07/28 03:25:40;;;;;;;12.25;8.35;;;;;;;18.41;87.82;100712.17;1722349;83;21211;-86
2022/07/28 03:28:07;;;;;;;10.53;8.95;;;;;;;18.43;87.72;100712.38;1721836;82;20927;-88
2022/07/28 03:30:40;;;;;;;8.93;8.10;;;;;;;18.47;87.55;100717.39;1720974;82;20888;-88
2022/07/28 03:33:07;;;;;;;8.88;8.00;;;;;;;18.51;87.56;100720.12;1721253;83;20899;-90
2022/07/28 03:35:37;;;;;;;9.80;8.00;;;;;;;18.55;87.74;100717.53;1720751;83;20923;-89
2022/07/28 03:38:35;;;;;;;11.35;7.95;;;;;;;18.59;87.94;100711.80;1693160;83;21557;-91
2022/07/28 03:41:03;;;;;;;9.20;8.40;;;;;;;18.63;88.05;100719.84;1721695;82;20978;-90
2022/07/28 03:43:30;;;;;;;13.15;8.95;;;;;;;18.73;88.38;100722.96;1721403;82;20852;-89
2022/07/28 03:45:57;;;;;;;10.55;9.18;;;;;;;18.79;88.45;100716.62;1721316;83;20887;-89
2022/07/28 03:48:29;;;;;;;14.40;7.83;;;;;;;18.87;88.42;100717.72;1721089;83;21413;-90
2022/07/28 03:50:56;;;;;;;12.63;9.18;;;;;;;18.94;88.40;100714.36;1721300;83;21208;-91
2022/07/28 03:53:25;;;;;;;10.05;8.30;;;;;;;19.02;88.37;100717.61;1721473;82;20915;-92
2022/07/28 03:55:52;;;;;;;11.55;8.73;;;;;;;19.11;88.26;100720.72;1743762;80;20920;-90
2022/07/28 03:58:21;;;;;;;9.78;8.20;;;;;;;19.18;88.29;100719.15;1761349;78;20986;-89
2022/07/28 04:00:48;;;;;;;12.60;8.85;;;;;;;19.28;88.34;100731.59;1761742;80;20853;-89
2022/07/28 04:03:16;;;;;;;12.45;9.23;;;;;;;19.36;88.26;100734.34;1760909;78;21258;-89
2022/07/28 04:05:43;;;;;;;12.88;9.70;;;;;;;19.45;88.25;100727.67;1760853;78;20994;-89
2022/07/28 04:08:11;;;;;;;10.10;8.65;;;;;;;19.54;88.18;100725.95;1760639;78;20936;-91
2022/07/28 04:10:38;;;;;;;11.50;9.18;;;;;;;19.64;87.89;100724.56;1759196;81;20873;-89
2022/07/28 04:13:06;;;;;;;11.00;9.90;;;;;;;19.73;87.69;100726.36;1759332;80;20892;-91
2022/07/28 04:15:34;;;;;;;12.50;8.90;;;;;;;19.83;87.45;100738.26;1759176;81;21229;-88
2022/07/28 04:18:00;;;;;;;11.12;10.03;;;;;;;19.93;87.15;100742.22;1759721;81;20920;-88
2022/07/28 04:20:27;;;;;;;10.72;9.45;;;;;;;20.02;86.99;100743.97;1759595;81;20923;-90
2022/07/28 04:22:54;;;;;;;10.32;8.73;;;;;;;20.13;86.97;100738.92;1759049;81;20865;-91
2022/07/28 04:25:23;;;;;;;13.18;9.78;;;;;;;20.24;87.04;100738.20;1759372;81;20932;-90
2022/07/28 04:27:51;;;;;;;10.15;8.30;;;;;;;20.40;86.92;100746.83;1758948;81;21234;-91
2022/07/28 04:30:20;;;;;;;8.78;7.78;;;;;;;20.62;86.26;100744.72;1759201;81;21324;-90
2022/07/28 04:32:48;;;;;;;8.80;7.90;;;;;;;20.96;85.51;100746.63;1758897;81;20944;-90
2022/07/28 04:35:15;;;;;;;13.15;7.78;;;;;;;21.41;84.16;100745.56;1758844;80;20912;-90
2022/07/28 04:37:42;;;;;;;9.23;7.58;;;;;;;21.90;82.54;100747.94;1759242;81;20976;-92
2022/07/28 04:40:10;;;;;;;7.78;7.10;;;;;;;22.51;80.71;100752.55;1759238;80;21011;-91
2022/07/28 04:42:39;;;;;;;8.05;7.22;;;;;;;23.18;78.35;100755.01;1759037;81;21054;-92
2022/07/28 04:45:08;;;;;;;7.62;6.10;;;;;;;23.89;75.65;100756.95;1759093;81;21354;-91
2022/07/28 04:47:36;;;;;;;6.40;5.80;;;;;;;24.53;72.47;100754.04;1759014;81;20849;-91
2022/07/28 04:50:06;;;;;;;5.50;5.00;;;;;;;25.15;69.56;100759.66;1759317;80;20821;-93
2022/07/28 04:52:33;;;;;;;6.55;5.95;;;;;;;25.73;67.00;100759.33;1760064;81;21251;-91
2022/07/28 04:55:00;;;;;;;6.87;5.15;;;;;;;26.33;64.73;100762.70;1759051;80;20991;-90
2022/07/28 04:57:28;;;;;;;7.72;5.47;;;;;;;26.89;62.56;100761.95;1759640;81;20968;-92
2022/07/28 04:59:57;;;;;;;5.35;4.87;;;;;;;27.42;60.63;100760.14;1759440;81;20939;-91
2022/07/28 05:02:23;;;;;;;8.65;5.28;;;;;;;27.97;58.61;100766.91;1760973;78;20889;-91
2022/07/28 05:04:51;;;;;;;6.40;4.72;;;;;;;28.48;56.37;100763.70;1761193;78;21172;-92
2022/07/28 05:07:18;;;;;;;6.83;4.35;;;;;;;28.99;54.95;100761.70;1760896;78;20893;-92
2022/07/28 05:09:48;;;;;;;5.30;4.37;;;;;;;29.46;53.23;100761.12;1760150;80;20861;-89
2022/07/28 05:12:17;;;;;;;5.72;3.65;;;;;;;29.93;51.97;100765.83;1760140;80;20861;-90
2022/07/28 05:14:45;;;;;;;4.35;3.95;;;;;;;30.36;50.95;100763.80;1760307;81;21319;-90
2022/07/28 05:17:15;;;;;;;3.52;3.33;;;;;;;30.81;49.80;100766.88;1759900;81;21917;-93
2022/07/28 05:19:45;;;;;;;4.05;3.42;;;;;;;31.24;48.88;100766.08;1740720;81;20971;-93
2022/07/28 05:22:13;;;;;;;4.55;4.08;;;;;;;31.64;47.74;100764.78;1759868;81;20928;-91
2022/07/28 05:24:40;;;;;;;4.42;4.08;;;;;;;31.97;47.00;100765.23;1759560;80;20975;-92
2022/07/28 05:27:07;;;;;;;3.80;3.37;;;;;;;32.29;46.48;100770.92;1759218;80;20991;-92
2022/07/28 05:29:39;;;;;;;3.60;3.40;;;;;;;32.61;45.49;100773.64;1759312;80;21155;-92
2022/07/28 05:32:05;;;;;;;5.92;3.42;;;;;;;32.94;44.81;100769.53;1758867;81;21370;-94
2022/07/28 05:34:34;;;;;;;7.03;4.40;;;;;;;33.27;44.04;100774.91;1758956;80;20916;-93
2022/07/28 05:37:01;;;;;;;4.37;3.30;;;;;;;33.58;43.19;100771.48;1758872;81;20944;-93
2022/07/28 05:39:31;;;;;;;3.70;3.40;;;;;;;33.85;42.83;100771.21;1758959;80;21010;-90
2022/07/28 05:41:59;;;;;;;5.55;4.37;;;;;;;34.09;42.09;100775.20;1759117;81;21710;-93
2022/07/28 05:44:25;;;;;;;3.85;3.62;;;;;;;34.35;41.88;100776.51;1758770;81;20849;-93
2022/07/28 05:46:51;;;;;;;3.55;3.25;;;;;;;34.61;41.56;100775.55;1758992;81;20942;-94
2022/07/28 05:49:20;;;;;;;4.75;3.12;;;;;;;34.84;40.99;100771.83;1759112;81;20936;-94
2022/07/28 05:51:49;;;;;;;3.52;3.22;;;;;;;35.03;40.45;100776.48;1759228;81;20968;-92
2022/07/28 05:54:16;;;;;;;3.50;3.17;;;;;;;35.22;39.71;100782.52;1759408;81;21845;-93
2022/07/28 05:56:43;;;;;;;3.58;3.25;;;;;;;35.29;39.18;100780.42;1759408;80;20968;-93
2022/07/28 05:59:10;;;;;;;6.50;5.90;;;;;;;35.39;38.62;100777.80;1759652;81;20936;-94
2022/07/28 06:01:37;;;;;;;5.28;4.80;;;;;;;35.47;38.27;100780.64;1759344;81;20888;-93
2022/07/28 06:04:04;;;;;;;3.05;2.75;;;;;;;35.42;37.20;100784.68;1759482;81;20916;-93
2022/07/28 06:06:32;;;;;;;2.90;2.67;;;;;;;35.41;37.27;100783.02;1759719;81;20967;-94
2022/07/28 06:09:00;;;;;;;2.80;2.62;;;;;;;35.45;37.32;100786.34;1760812;81;21074;-94
2022/07/28 06:11:27;;;;;;;2.98;2.72;;;;;;;35.62;37.24;100776.77;1761334;78;20904;-91
2022/07/28 06:13:54;;;;;;;2.65;2.45;;;;;;;35.87;36.86;100777.58;1760643;81;21366;-94
2022/07/28 06:16:24;;;;;;;2.80;2.58;;;;;;;36.14;36.41;100778.15;1743367;81;20896;-94
2022/07/28 06:18:51;;;;;;;2.50;2.30;;;;;;;36.44;35.90;100778.12;1760093;80;21248;-92
2022/07/28 06:21:18;;;;;;;2.17;2.08;;;;;;;36.67;35.28;100783.27;1760807;78;20885;-93
2022/07/28 06:23:46;;;;;;;2.67;2.47;;;;;;;36.70;35.60;100774.53;1761321;78;20944;-93
2022/07/28 06:26:13;;;;;;;3.77;2.67;;;;;;;36.63;34.87;100761.64;1744280;78;21000;-87
2022/07/28 06:28:39;;;;;;;3.00;2.80;;;;;;;36.75;34.34;100768.27;1761162;78;20936;-90
2022/07/28 06:31:07;;;;;;;3.02;2.65;;;;;;;36.81;34.34;100782.25;1744442;80;20861;-90
2022/07/28 06:33:35;;;;;;;2.58;2.37;;;;;;;37.00;34.16;100783.18;1761359;78;20889;-89
2022/07/28 06:36:02;;;;;;;2.90;2.65;;;;;;;37.17;33.97;100782.48;1761445;81;20877;-88
2022/07/28 06:38:30;;;;;;;6.15;2.15;;;;;;;37.34;33.85;100774.92;1761396;78;20877;-87
2022/07/28 06:40:58;;;;;;;2.20;2.05;;;;;;;37.54;33.81;100775.54;1761486;78;20920;-87
2022/07/28 06:43:25;;;;;;;4.50;3.50;;;;;;;37.67;32.99;100781.64;1761155;81;22231;-86
2022/07/28 06:45:52;;;;;;;3.75;3.12;;;;;;;37.79;32.70;100780.03;1761343;80;20845;-87
2022/07/28 06:48:19;;;;;;;4.28;4.00;;;;;;;37.86;33.15;100783.32;1761333;81;20986;-87
2022/07/28 06:50:45;;;;;;;2.72;2.52;;;;;;;37.91;32.93;100787.46;1761368;78;20928;-86
2022/07/28 06:53:12;;;;;;;3.25;2.65;;;;;;;37.96;32.72;100780.61;1760346;81;20939;-89
2022/07/28 06:55:40;;;;;;;2.58;2.37;;;;;;;38.13;32.41;100783.11;1759891;80;20876;-91
2022/07/28 06:58:07;;;;;;;5.12;4.80;;;;;;;38.32;31.89;100772.45;1695223;81;20916;-91
2022/07/28 07:00:36;;;;;;;2.67;2.47;;;;;;;38.43;31.05;100769.16;1759788;81;20963;-90
2022/07/28 07:03:02;;;;;;;11.03;10.05;;;;;;;38.36;30.65;100765.33;1759269;80;20940;-91
2022/07/28 07:05:30;;;;;;;8.70;3.15;;;;;;;38.32;30.99;100765.60;1758935;81;21497;-89
2022/07/28 07:07:57;;;;;;;7.42;5.15;;;;;;;38.19;30.83;100765.59;1759528;81;21303;-90
2022/07/28 07:10:24;;;;;;;3.00;2.70;;;;;;;38.28;30.94;100767.24;1759905;81;20904;-91
2022/07/28 07:12:53;;;;;;;2.12;2.02;;;;;;;38.35;31.24;100774.63;1759859;80;20897;-92
2022/07/28 07:15:20;;;;;;;4.37;2.80;;;;;;;38.52;31.07;100777.13;1759784;81;20972;-91
2022/07/28 07:17:47;;;;;;;2.70;2.50;;;;;;;38.76;31.09;100776.83;1742783;81;20848;-92
2022/07/28 07:20:16;;;;;;;2.47;2.27;;;;;;;38.99;30.29;100779.28;1759517;80;20923;-92
2022/07/28 07:22:44;;;;;;;3.80;2.22;;;;;;;39.17;29.84;100778.10;1759391;80;20959;-92
2022/07/28 07:25:15;;;;;;;2.60;2.40;;;;;;;39.35;29.69;100782.18;1759587;81;20936;-91
2022/07/28 07:27:42;;;;;;;6.00;2.58;;;;;;;39.57;29.58;100787.85;1759653;81;20936;-94
2022/07/28 07:30:10;;;;;;;2.77;2.37;;;;;;;39.69;29.51;100788.88;1759444;81;20971;-90
2022/07/28 07:32:37;;;;;;;2.87;2.52;;;;;;;39.78;29.21;100789.39;1759297;80;21331;-90
2022/07/28 07:35:05;;;;;;;2.50;2.30;;;;;;;39.86;28.23;100790.73;1759967;81;20931;-91
2022/07/28 07:37:31;;;;;;;2.45;2.33;;;;;;;39.89;28.71;100788.80;1759570;81;20978;-89
2022/07/28 07:40:00;;;;;;;3.08;2.20;;;;;;;39.92;28.51;100790.16;1759389;81;20924;-92
2022/07/28 07:42:27;;;;;;;2.55;2.45;;;;;;;40.02;28.19;100790.07;1742866;81;20876;-92
2022/07/28 07:44:55;;;;;;;2.27;2.17;;;;;;;40.14;28.25;100787.80;1759215;80;21096;-91
2022/07/28 07:47:21;;;;;;;3.83;2.00;;;;;;;40.20;28.05;100794.09;1759370;80;20967;-92
2022/07/28 07:49:48;;;;;;;3.70;2.40;;;;;;;40.28;27.74;100795.42;1759226;81;20900;-93
2022/07/28 07:52:16;;;;;;;2.90;2.00;;;;;;;40.42;27.91;100802.45;1759011;81;20936;-92
2022/07/28 07:54:42;;;;;;;2.65;2.47;;;;;;;40.49;27.78;100796.90;1759414;80;20936;-92
2022/07/28 07:57:09;;;;;;;2.52;2.33;;;;;;;40.63;27.96;100798.97;1759164;81;21072;-92
2022/07/28 07:59:36;;;;;;;2.05;1.85;;;;;;;40.76;27.72;100792.27;1759668;81;20829;-92
2022/07/28 08:02:03;;;;;;;2.55;2.37;;;;;;;40.88;27.27;100798.73;1759641;81;20963;-90
2022/07/28 08:04:30;;;;;;;4.28;4.08;;;;;;;40.98;27.26;100793.69;1760215;81;20939;-91
2022/07/28 08:06:57;;;;;;;3.45;2.40;;;;;;;41.09;26.99;100794.38;1743065;81;20892;-92
2022/07/28 08:09:24;;;;;;;8.63;5.75;;;;;;;40.97;26.80;100796.98;1759540;81;21114;-91
2022/07/28 08:11:51;;;;;;;2.62;2.47;;;;;;;40.91;26.91;100792.66;1759376;81;21464;-91
2022/07/28 08:14:18;;;;;;;2.55;2.35;;;;;;;40.88;27.05;100797.36;1759038;81;20889;-89
2022/07/28 08:16:45;;;;;;;5.65;5.22;;;;;;;40.99;26.58;100798.07;1759111;80;21295;-92
2022/07/28 08:19:12;;;;;;;8.13;2.60;;;;;;;40.96;26.46;100800.05;1759642;81;20888;-90
2022/07/28 08:21:39;;;;;;;2.27;2.10;;;;;;;40.88;26.85;100801.48;1759505;81;21284;-91
2022/07/28 08:24:07;;;;;;;2.50;2.30;;;;;;;40.96;26.69;100798.10;1759040;81;20885;-92
2022/07/28 08:26:33;;;;;;;3.25;3.00;;;;;;;41.08;26.33;100799.63;1759171;81;20920;-92
2022/07/28 08:29:00;;;;;;;2.40;2.30;;;;;;;41.13;26.86;100799.03;1759239;81;20948;-93
2022/07/28 08:31:26;;;;;;;2.65;2.55;;;;;;;41.14;26.57;100797.93;1759454;81;20877;-90
2022/07/28 08:33:53;;;;;;;2.37;2.27;;;;;;;41.23;26.10;100797.30;1759250;81;21148;-92
2022/07/28 08:36:20;;;;;;;2.55;2.35;;;;;;;41.26;25.96;100792.56;1759788;81;20983;-92
2022/07/28 08:38:48;;;;;;;8.70;2.35;;;;;;;41.33;26.06;100794.39;1759964;81;20912;-92
2022/07/28 08:41:28;;;;;;;3.95;2.62;;;;;;;41.37;25.77;100790.75;1760172;81;20861;-92
2022/07/28 08:43:54;;;;;;;2.40;2.12;;;;;;;41.29;26.08;100794.18;1741495;81;20872;-90
2022/07/28 08:46:22;;;;;;;3.83;2.12;;;;;;;41.34;25.67;100787.23;1760809;81;21084;-91
2022/07/28 08:48:49;;;;;;;2.95;2.67;;;;;;;41.53;26.03;100790.55;1759599;81;20999;-91
2022/07/28 08:51:16;;;;;;;4.00;2.60;;;;;;;41.80;25.57;100785.79;1759268;81;20837;-90
2022/07/28 08:53:44;;;;;;;2.40;2.30;;;;;;;41.77;25.71;100787.77;1759297;81;20924;-91
2022/07/28 08:56:14;;;;;;;2.80;2.60;;;;;;;41.61;25.69;100787.17;1759181;80;20963;-92
2022/07/28 08:58:41;;;;;;;3.65;2.45;;;;;;;41.36;25.84;100785.00;1759302;81;21785;-89
2022/07/28 09:01:09;;;;;;;3.75;3.45;;;;;;;41.01;26.43;100784.84;1758959;81;20975;-90
2022/07/28 09:03:37;;;;;;;2.90;2.72;;;;;;;40.67;26.51;100789.04;1759424;81;20889;-91
2022/07/28 09:06:04;;;;;;;2.60;2.50;;;;;;;40.39;26.97;100789.54;1759095;81;20892;-91
2022/07/28 09:08:32;;;;;;;2.22;2.10;;;;;;;40.22;27.43;100794.59;1759165;81;21379;-92
2022/07/28 09:11:00;;;;;;;2.83;2.62;;;;;;;40.28;27.49;100783.86;1759199;81;20964;-90
2022/07/28 09:13:27;;;;;;;2.30;2.10;;;;;;;40.37;27.20;100790.38;1759389;80;21050;-91
2022/07/28 09:15:53;;;;;;;6.78;3.27;;;;;;;40.47;27.09;100790.05;1759739;81;20884;-90
2022/07/28 09:18:20;;;;;;;2.72;2.62;;;;;;;40.49;27.26;100791.93;1759535;80;20936;-90
2022/07/28 09:20:47;;;;;;;4.50;3.30;;;;;;;40.56;27.09;100786.94;1759198;81;21563;-89
2022/07/28 09:23:13;;;;;;;2.55;2.35;;;;;;;40.59;26.85;100786.34;1759560;81;21167;-92
2022/07/28 09:25:40;;;;;;;4.35;2.10;;;;;;;40.54;26.62;100791.91;1760002;81;21345;-90
2022/07/28 09:28:09;;;;;;;5.33;4.55;;;;;;;40.56;26.94;100796.56;1759368;81;20908;-89
2022/07/28 09:30:42;;;;;;;3.85;2.92;;;;;;;40.70;26.75;100793.42;1742481;81;20888;-89
2022/07/28 09:33:24;;;;;;;8.13;3.17;;;;;;;40.81;26.22;100791.39;1759665;81;20888;-91
2022/07/28 09:35:55;;;;;;;2.70;2.50;;;;;;;40.80;26.26;100793.86;1760010;81;21453;-91
2022/07/28 09:38:24;;;;;;;3.75;3.45;;;;;;;40.88;26.19;100795.98;1759355;80;20967;-88
2022/07/28 09:41:06;;;;;;;6.37;3.62;;;;;;;40.90;25.76;100795.70;1758784;81;20904;-88
2022/07/28 09:43:42;;;;;;;2.90;2.72;;;;;;;40.90;26.18;100795.70;1759042;80;20912;-90
2022/07/28 09:46:14;;;;;;;4.22;3.17;;;;;;;40.87;25.95;100793.52;1759450;81;20967;-89
2022/07/28 09:48:55;;;;;;;;;;;;;;;40.63;26.26;100803.91;1762424;81;21216;-92
2022/07/28 09:51:26;;;;;;;7.08;4.28;;;;;;;40.45;25.93;100806.83;1759769;80;20121;-90
2022/07/28 09:53:53;;;;;;;18.77;17.17;;;;;;;40.22;26.25;100798.72;1743334;81;20856;-89
2022/07/28 09:56:22;;;;;;;6.53;5.92;;;;;;;40.16;26.69;100796.58;1742138;81;20928;-89
2022/07/28 09:58:56;;;;;;;3.02;2.83;;;;;;;40.15;26.36;100793.55;1759321;81;20970;-91
2022/07/28 10:01:24;;;;;;;7.03;6.30;;;;;;;40.14;26.28;100792.48;1742579;81;21442;-90
2022/07/28 10:03:54;;;;;;;8.10;7.50;;;;;;;40.08;26.33;100800.48;1743058;81;21433;-92
2022/07/28 10:06:27;;;;;;;3.80;3.40;;;;;;;40.05;26.83;100790.08;1760524;81;20928;-90
2022/07/28 10:08:56;;;;;;;6.08;5.58;;;;;;;39.99;26.92;100787.34;1761126;78;20979;-91
2022/07/28 10:11:29;;;;;;;4.70;4.33;;;;;;;39.98;26.94;100796.70;1760911;78;20928;-91
2022/07/28 10:14:02;;;;;;;2.87;2.67;;;;;;;39.91;26.60;100792.63;1758379;81;21389;-91
2022/07/28 10:16:35;;;;;;;3.52;3.25;;;;;;;39.81;26.44;100788.00;1758915;81;20892;-91
2022/07/28 10:19:04;;;;;;;2.67;2.47;;;;;;;39.87;26.31;100786.89;1742089;81;20924;-91
2022/07/28 10:21:34;;;;;;;3.47;2.47;;;;;;;40.02;26.15;100782.39;1759121;80;20967;-91
2022/07/28 10:24:08;;;;;;;4.90;2.70;;;;;;;40.10;26.19;100779.86;1758982;81;21433;-92
2022/07/28 10:26:43;;;;;;;3.22;3.00;;;;;;;40.15;26.25;100777.62;1758621;81;21227;-92
2022/07/28 10:29:15;;;;;;;3.15;2.15;;;;;;;40.33;25.97;100776.97;1742579;81;20952;-91
2022/07/28 10:31:56;;;;;;;;;;;;;;;40.50;26.03;100771.59;1761516;81;21398;-93
2022/07/28 10:34:40;;;;;;;2.45;2.12;;;;;;;40.68;26.23;100777.73;1758969;80;20125;-92
2022/07/28 10:37:11;;;;;;;3.47;3.15;;;;;;;40.74;25.61;100773.04;1753077;81;20873;-93
2022/07/28 10:39:41;;;;;;;2.37;2.25;;;;;;;40.90;25.87;100777.81;1742375;81;22100;-92
2022/07/28 10:42:11;;;;;;;5.37;3.52;;;;;;;40.96;25.51;100769.22;1759360;80;20888;-90
2022/07/28 10:44:40;;;;;;;3.37;2.98;;;;;;;41.02;25.61;100771.33;1759506;80;21018;-91
2022/07/28 10:47:08;;;;;;;2.85;2.00;;;;;;;41.06;24.97;100768.83;1759414;81;20928;-90
2022/07/28 10:49:37;;;;;;;2.92;2.42;;;;;;;41.05;24.74;100770.77;1759864;81;20916;-92
2022/07/28 10:52:05;;;;;;;2.92;2.10;;;;;;;41.10;24.78;100776.20;1760355;81;21084;-90
2022/07/28 10:54:46;;;;;;;5.35;2.02;;;;;;;41.21;24.75;100774.18;1760350;81;20923;-90
2022/07/28 10:57:15;;;;;;;6.25;5.42;;;;;;;41.35;24.70;100772.33;1756701;81;20969;-90
2022/07/28 11:00:02;;;;;;;3.75;2.50;;;;;;;41.36;24.39;100780.88;1746090;81;20940;-91
2022/07/28 11:02:49;;;;;;;2.45;2.20;;;;;;;41.29;24.23;100776.29;1746063;82;20940;-93
2022/07/28 11:05:38;;;;;;;3.98;3.72;;;;;;;41.29;24.80;100772.16;1746153;81;20881;-91
2022/07/28 11:08:11;;;;;;;3.70;2.58;;;;;;;41.23;24.30;100769.77;1745976;80;20897;-89
2022/07/28 11:13:28;;;;;;;4.53;4.17;;;;;;;41.12;24.49;100778.67;1856243;77;22267;-88
2022/07/28 11:16:14;;;;;;;2.35;2.00;;;;;;;41.01;24.63;100780.72;1786405;80;20868;-90
2022/07/28 11:19:10;;;;;;;3.00;2.80;;;;;;;40.99;24.61;100776.06;1790177;80;21250;-92
2022/07/28 11:21:49;;;;;;;2.45;2.25;;;;;;;40.90;24.60;100772.31;1757698;81;20856;-92
2022/07/28 11:24:16;;;;;;;3.37;2.90;;;;;;;40.81;23.88;100773.51;1715254;83;20865;-90
2022/07/28 11:26:44;;;;;;;6.37;5.87;;;;;;;40.57;24.04;100773.44;1773084;80;20904;-90
2022/07/28 11:29:13;;;;;;;6.15;4.90;;;;;;;40.42;24.67;100766.71;1773278;81;20955;-90
2022/07/28 11:31:50;;;;;;;2.77;2.47;;;;;;;40.28;24.51;100758.31;1773063;80;21402;-87
2022/07/28 11:34:23;;;;;;;4.58;4.15;;;;;;;40.16;24.47;100762.79;1772892;81;20881;-90
2022/07/28 11:37:04;;;;;;;13.03;11.83;;;;;;;39.95;24.98;100769.79;1773036;81;21002;-90
2022/07/28 11:39:39;;;;;;;4.08;3.35;;;;;;;39.72;25.55;100767.73;1773270;81;20936;-90
2022/07/28 11:42:34;;;;;;;4.83;4.42;;;;;;;39.53;26.02;100765.66;1772583;81;20880;-91